ADDS METAR Data INFO
IDs: Format: Raw Decoded Include TAF

Data at: 0111 UTC 24 Jun 2018

KBEC 240055Z AUTO 17007KT 10SM CLR 28/17 A2978 RMK AO2 T02800174
KBEC 240035Z AUTO 18008KT 10SM CLR 29/18 A2977 RMK AO2 T02890176
KBEC 240015Z AUTO 19006KT 10SM CLR 29/17 A2978 RMK AO2 T02920172
KBEC 232355Z AUTO 20006KT 10SM CLR 29/17 A2978 RMK AO2 60006 T02920167 10303 20267
KBEC 232335Z AUTO 17008KT 10SM CLR 30/17 A2978 RMK AO2 T03000171
KBEC 232315Z AUTO 19006KT 10SM CLR 30/17 A2978 RMK AO2 T03010173
KBEC 232255Z AUTO 18008KT 150V210 10SM CLR 30/18 A2979 RMK AO2 T03030175
KBEC 232235Z AUTO 23010KT 10SM CLR 30/17 A2980 RMK AO2 T03010170
KBEC 232215Z AUTO 24008KT 10SM CLR 30/17 A2980 RMK AO2 T03020173
KBEC 232155Z AUTO 19007KT 10SM CLR 30/18 A2980 RMK AO2 P0001 T03010176
KBEC 232135Z AUTO 20006G15KT 10SM CLR 30/17 A2981 RMK AO2 P0001 T02980174
KBEC 232115Z AUTO 19004KT 10SM CLR 30/17 A2981 RMK AO2 P0001 T02970167
KBEC 232055Z AUTO 20004KT 10SM CLR 29/17 A2981 RMK AO2 P0001 60005 T02920167
KBEC 232035Z AUTO 24009KT 10SM CLR 29/17 A2982 RMK AO2 P0001 T02930172
KBEC 232015Z AUTO 21007KT 10SM CLR 29/17 A2982 RMK AO2 P0001 T02900172
KBEC 231955Z AUTO 23005KT 10SM CLR 29/17 A2983 RMK AO2 P0001 T02850170
KBEC 231935Z AUTO 21007G17KT 10SM CLR 28/17 A2983 RMK AO2 P0001 T02840173
KBEC 231915Z AUTO 22010KT 10SM CLR 28/17 A2983 RMK AO2 T02820172
KBEC 231855Z AUTO 23008KT 10SM CLR 28/17 A2983 RMK AO2 P0002 T02810170
KBEC 231835Z AUTO 26009KT 10SM CLR 28/17 A2984 RMK AO2 P0002 T02790167
KBEC 231815Z AUTO 20009KT 170V230 10SM CLR 27/16 A2985 RMK AO2 P0001 T02730163
KBEC 231755Z AUTO 22005KT 10SM CLR 27/16 A2985 RMK AO2 P0005 60015 T02710159 10272 20170
KBEC 231735Z AUTO 26006KT 10SM CLR 26/16 A2985 RMK AO2 P0003 T02630157
KBEC 231715Z AUTO 33004KT 10SM CLR 26/16 A2985 RMK AO2 P0002 T02630156
KBEC 231655Z AUTO 24003KT 10SM CLR 25/15 A2985 RMK AO2 P0006 T02520150
KBEC 231635Z AUTO 00000KT 10SM CLR 25/15 A2985 RMK AO2 P0004 T02520153
KBEC 231615Z AUTO 00000KT 10SM CLR 24/15 A2985 RMK AO2 P0002 T02430149
KBEC 231555Z AUTO 25003KT 10SM CLR 24/15 A2985 RMK AO2 P0002 T02430153
KBEC 231535Z AUTO 30005KT 10SM CLR 24/16 A2985 RMK AO2 P0001 T02380156
KBEC 231515Z AUTO 01003KT 10SM CLR 23/15 A2984 RMK AO2 T02330153
KBEC 231455Z AUTO 36003KT 10SM CLR 23/16 A2985 RMK AO2 P0001 60002 T02280160
KBEC 231435Z AUTO 00000KT 10SM CLR 22/16 A2984 RMK AO2 T02180162
KBEC 231415Z AUTO 00000KT 10SM CLR 21/16 A2984 RMK AO2 T02060158
KBEC 231355Z AUTO 00000KT 10SM CLR 20/16 A2983 RMK AO2 P0001 T02010162
KBEC 231335Z AUTO 00000KT 10SM CLR 19/16 A2983 RMK AO2 P0001 T01930162
KBEC 231315Z AUTO 00000KT 10SM CLR 19/16 A2983 RMK AO2 P0001 T01900159
KBEC 231255Z AUTO 00000KT 10SM CLR 18/16 A2983 RMK AO2 T01800158
KBEC 231235Z AUTO 00000KT 10SM CLR 18/16 A2982 RMK AO2 T01780158
KBEC 231215Z AUTO 03003KT 10SM CLR 17/16 A2982 RMK AO2 T01720156
KBEC 231155Z AUTO 03004KT 10SM CLR 17/16 A2981 RMK AO2 P0001 60005 70007 T01710158 10180 20170
KBEC 231135Z AUTO 03003KT 10SM CLR 17/16 A2981 RMK AO2 P0001 T01700156
KBEC 231115Z AUTO 02004KT 10SM CLR 17/16 A2980 RMK AO2 T01700156
KBEC 231055Z AUTO 02006KT 10SM CLR 17/16 A2980 RMK AO2 T01700156
KBEC 231035Z AUTO 02006KT 10SM CLR 17/16 A2979 RMK AO2 T01720157
KBEC 231015Z AUTO 01005KT 10SM CLR 18/16 A2979 RMK AO2 T01750156
KBEC 230955Z AUTO 01006KT 10SM CLR 18/16 A2979 RMK AO2 P0001 T01750156
KBEC 230935Z AUTO 01008KT 10SM CLR 18/16 A2980 RMK AO2 T01750157
KBEC 230915Z AUTO 36006KT 10SM CLR 17/16 A2982 RMK AO2 T01740160
KBEC 230855Z AUTO 01006KT 10SM CLR 18/16 A2983 RMK AO2 P0001 60003 T01760160
KBEC 230835Z AUTO 36007KT 10SM CLR 18/16 A2983 RMK AO2 T01770161
KBEC 230815Z AUTO 36008KT 10SM CLR 18/16 A2982 RMK AO2 T01750161
KBEC 230755Z AUTO 36009KT 10SM CLR 18/16 A2981 RMK AO2 P0001 T01770159
KBEC 230735Z AUTO 21003KT 10SM CLR 18/16 A2977 RMK AO2 P0001 T01750155
KBEC 230715Z AUTO 21008KT 10SM CLR 18/16 A2977 RMK AO2 T01770155
KBEC 230655Z AUTO 21008G15KT 10SM CLR 18/16 A2977 RMK AO2 P0001 T01770156
KBEC 230635Z AUTO 21008KT 10SM CLR 18/16 A2976 RMK AO2 LTG DSNT NW P0001 T01750156
KBEC 230615Z AUTO 17006KT 10SM CLR 17/16 A2974 RMK AO2 T01730157
KBEC 230555Z AUTO 18005KT 10SM CLR 17/16 A2975 RMK AO2 P0001 60002 T01720158 10278 20172 402840165
KBEC 230535Z AUTO 16005KT 10SM CLR 18/16 A2973 RMK AO2 P0001 T01760158
KBEC 230515Z AUTO 11016G21KT 10SM SCT110 18/16 A2967 RMK AO2 LTG DSNT SE T01760164
KBEC 230455Z AUTO 12015KT 10SM -RA SCT100 BKN120 18/17 A2974 RMK AO2 LTG DSNT SE T01780168
KBEC 230435Z AUTO 15003KT 10SM -RA BKN100 BKN120 18/17 A2988 RMK AO2 T01800168
KBEC 230415Z AUTO 33004KT 10SM VCTSRA OVC110 18/17 A2994 RMK AO2 LTG DSNT SE T01830167
KBEC 230355Z AUTO 00000KT 10SM RA SCT075 SCT085 OVC110 18/17 A2995 RMK AO2 LTG DSNT SE P0001 T01840167
KBEC 230335Z AUTO 33006KT 10SM VCTSRA SCT065 OVC080 19/17 A2996 RMK AO2 LTG DSNT S T01850167
KBEC 230315Z AUTO 33009G16KT 10SM VCTSRA SCT049 OVC065 19/17 A2998 RMK AO2 LTG DSNT E THRU SW T01880165
KBEC 230255Z AUTO 35015G22KT 10SM -VCTSRA BKN050 BKN065 OVC075 20/18 A2995 RMK AO2 LTG DSNT ALQS T01970176
KBEC 230235Z AUTO 35015G23KT 7SM TSRA SCT047 BKN050 OVC100 20/18 A2992 RMK AO2 LTG DSNT ALQS T02020177
KBEC 230215Z AUTO 34014G19KT 7SM +RA SCT050 SCT070 OVC110 23/17 A2990 RMK AO2 LTG DSNT NE SE AND NW T02290171
KBEC 230155Z AUTO 03005KT 10SM BKN110 25/15 A2980 RMK AO2 LTG DSNT SW THRU N T02510147
KBEC 230135Z AUTO 08007KT 10SM BKN120 26/14 A2976 RMK AO2 LTG DSNT W AND NW T02560143
KBEC 230115Z AUTO 08007KT 10SM SCT120 26/14 A2975 RMK AO2 LTG DSNT W AND NW T02600137
KBEC 230055Z AUTO 09007KT 10SM SCT120 26/13 A2975 RMK AO2 LTG DSNT W AND NW T02610134
KBEC 230035Z AUTO 08007KT 10SM CLR 27/13 A2976 RMK AO2 LTG DSNT W T02710132
KBEC 230015Z AUTO 07008KT 10SM CLR 28/13 A2974 RMK AO2 T02750132
KBEC 222355Z AUTO 09008KT 10SM CLR 28/13 A2975 RMK AO2 T02780134 10284 20224
KBEC 222335Z AUTO 06005KT 10SM CLR 28/13 A2976 RMK AO2 T02790128
KBEC 222315Z AUTO 05006KT 10SM CLR 28/13 A2975 RMK AO2 T02800126
KBEC 222255Z AUTO 08006KT 10SM CLR 28/14 A2976 RMK AO2 T02810136
KBEC 222235Z AUTO 04008KT 10SM CLR 28/13 A2977 RMK AO2 T02830127
KBEC 222215Z AUTO 04010G14KT 10SM CLR 28/13 A2978 RMK AO2 T02830132
KBEC 222155Z AUTO 03007KT 10SM CLR 28/12 A2979 RMK AO2 T02780123
KBEC 222135Z AUTO 01005KT 10SM CLR 28/13 A2980 RMK AO2 T02770134
KBEC 222115Z AUTO 05004KT 10SM CLR 28/13 A2981 RMK AO2 T02750131
KBEC 222055Z AUTO 35006KT 10SM CLR 27/14 A2982 RMK AO2 T02670140
KBEC 222035Z AUTO 34005KT 10SM CLR 27/14 A2983 RMK AO2 T02680138
KBEC 222015Z AUTO 32006KT 10SM CLR 26/14 A2983 RMK AO2 T02640136
KBEC 221955Z AUTO 00000KT 10SM CLR 26/14 A2985 RMK AO2 T02590136
KBEC 221935Z AUTO 31007KT 10SM CLR 26/14 A2986 RMK AO2 T02550141
KBEC 221915Z AUTO 28005KT 10SM CLR 25/14 A2987 RMK AO2 T02450137
KBEC 221855Z AUTO 32007KT 10SM CLR 24/14 A2988 RMK AO2 T02400142
KBEC 221835Z AUTO 31007KT 10SM SCT030 23/15 A2991 RMK AO2 T02340146
KBEC 221815Z AUTO 35007KT 10SM SCT028 23/15 A2991 RMK AO2 T02310149
KBEC 221755Z AUTO 29009KT 10SM SCT024 23/15 A2993 RMK AO2 T02300150 10232 20170
KBEC 221735Z AUTO 32006KT 10SM SCT022 22/15 A2992 RMK AO2 T02180149
KBEC 221715Z AUTO 28004KT 10SM OVC022 22/15 A2992 RMK AO2 T02150149
KBEC 221655Z AUTO 32009KT 10SM OVC022 21/15 A2993 RMK AO2 T02110150
KBEC 221635Z AUTO 30008KT 10SM OVC022 21/15 A2993 RMK AO2 T02110151
KBEC 221615Z AUTO 30006KT 10SM OVC020 21/15 A2992 RMK AO2 T02060152
KBEC 221555Z AUTO 29003KT 10SM OVC020 20/15 A2993 RMK AO2 T02000150
KBEC 221535Z AUTO 28005KT 10SM OVC018 20/15 A2993 RMK AO2 T01960150
KBEC 221515Z AUTO 31003KT 10SM OVC016 19/15 A2993 RMK AO2 T01940149
KBEC 221455Z AUTO 28006KT 10SM OVC016 19/15 A2994 RMK AO2 T01910149
KBEC 221435Z AUTO 36006KT 10SM OVC016 19/15 A2992 RMK AO2 T01920150
KBEC 221415Z AUTO 01007KT 10SM OVC014 19/15 A2992 RMK AO2 T01870147
KBEC 221355Z AUTO 02008KT 10SM OVC014 19/15 A2993 RMK AO2 T01850147
KBEC 221335Z AUTO 36006KT 10SM OVC012 18/15 A2992 RMK AO2 T01830148
KBEC 221315Z AUTO 01008KT 10SM OVC012 18/15 A2991 RMK AO2 T01810150